Adamsville, Rhode Island
Current Conditions -  °F | °C
As of 9:53 PM on Friday 21 Nov 2014 (Local Time) from KUUU Reporting Station
Clear Clear  
Wind Chill: 19°   Ceiling: Unl
Heat Index: 30°   Visibility: 10mi
Dew Point:   Wind: 15mph
Humidity: 41%   Direction: 290°WNW
Pressure: 30.43"   Gusts: 23mph
Location:  41.55°N, 71.13°W
Report Text: KUUU 220253Z AUTO 29013G20KT 10SM CLR M01/M13 A3043 RMK AO2 SLP303 T10111128 51020
Loading
Personal Weather Stations






























Interactive Weather Map New forecast layout! Learn more

10-Day Weather Forecast

Advertisements
Track Severe Weather on mobile